West Laurens, New York
Current Conditions -  °F | °C
As of 12:53 AM on Thursday 27 Nov 2014 (Local Time) from KBGM Reporting Station
Overcast Overcast  
Wind Chill: 30°   Ceiling: 600
Heat Index: 36°   Visibility: 8mi
Dew Point: 25°   Wind: 7mph
Humidity: 64%   Direction: 320°NW
Pressure: 29.88"   Gusts: NA
Location:  42.5392°N, 75.1508°W
Report Text: KBGM 270553Z AUTO 32006KT 8SM BKN006 OVC100 02/M04 A2988 RMK AO2 SNE53 SLP134 P0000 60003 T00221039 10067 20022 50002 $
Loading
Personal Weather Stations






























Interactive Weather Map New forecast layout! Learn more

10-Day Weather Forecast

Advertisements
Track Severe Weather on mobile